Flight Track Log - Related Links

Times and Time Zones

All times are in EDT time to prevent confusion due to time zone crossing. See the DAL39 flight status page for this flight to view local times or setup timezone preferences in your user account.

Time Position Orientation Groundspeed Altitude Reporting Facility
EDT Latitude Longitude Course Direction KTS MPH feet Rate Location/Type
Thu 05:07:46 AM 51.4653 -0.5321 270° West 180 207 2,100  Level FlightAware ADS-B
Thu 05:08:01 AM 51.4653 -0.5534 270° West 192 221 2,400 1,655 Climbing FlightAware ADS-B
Thu 05:08:15 AM 51.4653 -0.5711 269° West 189 217 2,900 1,778 Climbing FlightAware ADS-B
Thu 05:08:28 AM 51.4651 -0.5910 268° West 199 229 3,200 1,200 Climbing FlightAware ADS-B
Thu 05:08:35 AM 51.4648 -0.6025 262° West 208 239 3,300 1,000 Climbing FlightAware ADS-B
Thu 05:08:40 AM 51.4642 -0.6092 258° West 215 247 3,400 600 Climbing FlightAware ADS-B
Thu 05:08:45 AM 51.4632 -0.6168 256° West 222 255 3,400 857 Level FlightAware ADS-B
Thu 05:09:01 AM 51.4592 -0.6431 256° West 237 273 3,700 1,778 Climbing FlightAware ADS-B
Thu 05:09:12 AM 51.4560 -0.6636 256° West 238 274 4,200 2,400 Climbing FlightAware ADS-B
Thu 05:09:21 AM 51.4542 -0.6753 264° West 241 277 4,500 2,000 Climbing FlightAware ADS-B
Thu 05:09:24 AM 51.4538 -0.6815 270° West 242 278 4,600 2,000 Climbing FlightAware ADS-B
Thu 05:09:27 AM 51.4538 -0.6896 276° West 245 282 4,700 1,500 Climbing FlightAware ADS-B
Thu 05:09:36 AM 51.4548 -0.7059 275° West 251 289 4,900 1,875 Climbing FlightAware ADS-B
Thu 05:09:43 AM 51.4555 -0.7196 270° West 253 291 5,200 1,565 Climbing FlightAware ADS-B
Thu 05:09:59 AM 51.4555 -0.7323 269° West 256 295 5,500 2,000 Climbing FlightAware ADS-B
Thu 05:10:07 AM 51.4552 -0.7529 269° West 253 291 6,000 2,250 Climbing FlightAware ADS-B
Thu 05:10:23 AM 51.4550 -0.7739 269° West 258 297 6,400 2,211 Climbing FlightAware ADS-B
Thu 05:10:26 AM 51.4548 -0.7899 270° West 262 302 6,700 3,818 Climbing FlightAware ADS-B
Thu 05:10:34 AM 51.4547 -0.8084 269° West 260 299 7,100 3,375 Climbing FlightAware ADS-B
Thu 05:10:42 AM 51.4545 -0.8271 269° West 259 298 7,600 3,000 Climbing FlightAware ADS-B
Thu 05:10:52 AM 51.4543 -0.8520 269° West 268 308 8,000 2,077 Climbing FlightAware ADS-B
Thu 05:11:08 AM 51.4538 -0.8839 269° West 275 316 8,500 2,087 Climbing FlightAware ADS-B
Thu 05:11:15 AM 51.4536 -0.8975 269° West 274 315 8,800 2,471 Climbing FlightAware ADS-B
Thu 05:11:25 AM 51.4533 -0.9165 268° West 272 313 9,200 2,308 Climbing FlightAware ADS-B
Thu 05:11:41 AM 51.4527 -0.9428 268° West 273 314 9,800 1,588 Climbing FlightAware ADS-B
Thu 05:11:59 AM 51.4517 -0.9863 276° West 301 346 10,100 621 Climbing FlightAware ADS-B
Thu 05:12:10 AM 51.4533 -1.0120 285° West 312 359 10,100 1,610 Level FlightAware ADS-B
Thu 05:12:40 AM 51.4643 -1.0763 286° West 320 368 11,200 1,655 Climbing FlightAware ADS-B
Thu 05:13:08 AM 51.4772 -1.1485 285° West 349 402 11,700 1,017 Climbing FlightAware ADS-B
Thu 05:13:39 AM 51.4906 -1.2272 286° West 376 433 12,200 1,171 Climbing FlightAware ADS-B
Thu 05:13:49 AM 51.4944 -1.2492 284° West 377 434 12,500 2,444 Climbing FlightAware ADS-B
Thu 05:14:06 AM 51.5007 -1.2888 285° West 373 429 13,300 3,103 Climbing FlightAware ADS-B
Thu 05:14:18 AM 51.5075 -1.3284 288° West 372 428 14,000 3,333 Climbing FlightAware ADS-B
Thu 05:14:24 AM 51.5109 -1.3455 289° West 374 430 14,300 2,143 Climbing FlightAware ADS-B
Thu 05:14:32 AM 51.5152 -1.3661 291° West 375 432 14,500 1,412 Climbing FlightAware ADS-B
Thu 05:14:41 AM 51.5194 -1.3838 293° West 379 436 14,700 1,143 Climbing FlightAware ADS-B
Thu 05:14:53 AM 51.5283 -1.4171 293° West 387 445 14,900 409 Climbing FlightAware ADS-B
Thu 05:15:25 AM 51.5479 -1.4915 293° West 391 450 15,000 286 Climbing FlightAware ADS-B
Thu 05:15:56 AM 51.5712 -1.5800 293° West 384 442 15,200 885 Climbing FlightAware ADS-B
Thu 05:16:26 AM 51.5905 -1.6532 293° West 394 453 15,900 1,500 Climbing FlightAware ADS-B
Thu 05:16:56 AM 51.6084 -1.7214 293° West 402 463 16,700 1,714 Climbing FlightAware ADS-B
Thu 05:17:01 AM 51.6125 -1.7369 293° West 404 465 16,900 2,118 Climbing FlightAware ADS-B
Thu 05:17:30 AM 51.6365 -1.8297 293° West 412 474 17,900 1,574 Climbing FlightAware ADS-B
Thu 05:18:02 AM 51.6505 -1.8838 292° West 413 475 18,500 1,463 Climbing FlightAware ADS-B
Thu 05:18:11 AM 51.6577 -1.9120 293° West 415 478 18,900 2,348 Climbing FlightAware ADS-B
Thu 05:18:25 AM 51.6713 -1.9646 293° West 418 481 19,400 2,045 Climbing FlightAware ADS-B
Thu 05:18:55 AM 51.6969 -2.0642 293° West 424 488 20,400 1,770 Climbing FlightAware ADS-B
Thu 05:19:26 AM 51.7214 -2.1584 292° West 431 496 21,200 1,500 Climbing FlightAware ADS-B
Thu 05:19:47 AM 51.7334 -2.2054 292° West 432 497 21,700 1,667 Climbing FlightAware ADS-B
Thu 05:20:20 AM 51.7646 -2.3278 292° West 440 506 22,700 1,333 Climbing FlightAware ADS-B
Thu 05:20:59 AM 51.7852 -2.4089 292° West 444 511 23,300 1,444 Climbing FlightAware ADS-B
Thu 05:21:14 AM 51.8040 -2.4836 290° West 446 513 24,000 2,000 Climbing FlightAware ADS-B
Thu 05:21:32 AM 51.8177 -2.5462 283° West 450 518 24,400 1,685 Climbing FlightAware ADS-B
Thu 05:22:43 AM 51.8520 -2.7860 282° West 444 511 26,500 1,730 Climbing FlightAware ADS-B
Thu 05:23:23 AM 51.8690 -2.9150 283° West 440 506 27,600 1,569 Climbing FlightAware ADS-B
Thu 05:23:48 AM 51.8785 -2.9845 282° West 452 520 28,200 1,527 Climbing FlightAware ADS-B
Thu 05:24:18 AM 51.8909 -3.0791 282° West 438 504 29,000 1,524 Climbing FlightAware ADS-B
Thu 05:24:51 AM 51.9041 -3.1800 282° West 431 496 29,800 800 Climbing FlightAware ADS-B
Thu 05:25:33 AM 51.9240 -3.3290 281° West 425 489 30,000 146 Climbing FlightAware ADS-B
Thu 05:26:13 AM 51.9400 -3.4590 282° West 427 491 30,000  Level FlightAware ADS-B
Thu 05:26:53 AM 51.9560 -3.5850 282° West 435 501 30,000  Level FlightAware ADS-B
Thu 05:27:38 AM 51.9750 -3.7350 282° West 436 502 30,000  Level FlightAware ADS-B
Thu 05:28:13 AM 51.9870 -3.8280 282° West 439 505 30,000  Level FlightAware ADS-B
Thu 05:28:58 AM 52.0070 -3.9870 281° West 430 495 30,000  Level FlightAware ADS-B
Thu 05:29:43 AM 52.0240 -4.1260 281° West 423 487 30,000  Level FlightAware ADS-B
Thu 05:30:23 AM 52.0390 -4.2500 281° West 426 490 30,000  Level FlightAware ADS-B
Thu 05:31:08 AM 52.0560 -4.3930 281° West 427 491 30,000  Level FlightAware ADS-B
Thu 05:31:48 AM 52.0710 -4.5200 281° West 428 493 30,000  Level FlightAware ADS-B
Thu 05:32:28 AM 52.0860 -4.6480 281° West 430 495 30,000  Level FlightAware ADS-B
Thu 05:33:13 AM 52.1020 -4.7860 281° West 430 495 30,000  Level FlightAware ADS-B
Thu 05:33:53 AM 52.1170 -4.9140 281° West 432 497 30,000  Level FlightAware ADS-B
Thu 05:34:38 AM 52.1340 -5.0610 282° West 433 498 30,000  Level FlightAware ADS-B
Thu 05:35:18 AM 52.1510 -5.1870 286° West 429 494 30,000  Level FlightAware ADS-B
Thu 05:35:58 AM 52.1730 -5.3090 278° West 430 495 30,000  Level FlightAware ADS-B
Thu 05:36:43 AM 52.1860 -5.4590 272° West 439 505 30,000  Level FlightAware ADS-B
Thu 05:37:23 AM 52.1890 -5.5820 272° West 438 504 30,000  Level FlightAware ADS-B
Thu 05:38:08 AM 52.1920 -5.7360 272° West 437 503 30,000  Level FlightAware ADS-B
Thu 05:38:53 AM 52.1950 -5.8840 271° West 436 502 30,000  Level FlightAware ADS-B
Thu 05:39:33 AM 52.1970 -6.0160 271° West 436 502 30,000  Level FlightAware ADS-B
Thu 05:40:13 AM 52.1990 -6.1470 271° West 435 501 30,000  Level FlightAware ADS-B
Thu 05:40:58 AM 52.2010 -6.2860 271° West 434 499 30,000  Level FlightAware ADS-B
Thu 05:41:38 AM 52.2030 -6.4180 271° West 434 499 30,000  Level FlightAware ADS-B
Thu 05:42:18 AM 52.2040 -6.5400 271° West 434 499 30,000  Level FlightAware ADS-B
Thu 05:43:03 AM 52.2060 -6.7000 271° West 434 499 30,000  Level FlightAware ADS-B
Thu 05:43:43 AM 52.2070 -6.8170 271° West 433 498 30,000  Level FlightAware ADS-B
Thu 05:44:28 AM 52.2090 -6.9670 271° West 432 497 30,000  Level FlightAware ADS-B
Thu 05:45:08 AM 52.2100 -7.0940 270° West 431 496 30,000  Level FlightAware ADS-B
Thu 05:45:43 AM 52.2100 -7.2060 271° West 433 498 30,000  Level FlightAware ADS-B
Thu 05:46:28 AM 52.2110 -7.3600 271° West 433 498 30,000  Level FlightAware ADS-B
Thu 05:47:08 AM 52.2120 -7.4860 271° West 433 498 30,000  Level FlightAware ADS-B
Thu 05:47:53 AM 52.2130 -7.6350 270° West 434 499 30,000  Level FlightAware ADS-B
Thu 05:48:38 AM 52.2130 -7.7790 270° West 435 501 30,000  Level FlightAware ADS-B
Thu 05:49:13 AM 52.2130 -7.8930 270° West 436 502 30,000  Level FlightAware ADS-B
Thu 05:49:58 AM 52.2130 -8.0500 270° West 438 504 30,000  Level FlightAware ADS-B
Thu 05:50:43 AM 52.2130 -8.1750 270° West 438 504 30,000  Level FlightAware ADS-B
Thu 05:51:23 AM 52.2130 -8.3000 269° West 437 503 30,000  Level FlightAware ADS-B
Thu 05:52:03 AM 52.2120 -8.4430 269° West 437 503 30,000  Level FlightAware ADS-B
Thu 05:52:48 AM 52.2110 -8.5870 270° West 436 502 30,000  Level FlightAware ADS-B
Thu 05:53:28 AM 52.2110 -8.7320 269° West 436 502 30,000  Level FlightAware ADS-B
Thu 05:54:08 AM 52.2100 -8.8430 269° West 435 501 30,000  Level FlightAware ADS-B
Thu 05:54:48 AM 52.2090 -8.9800 269° West 435 501 30,000  Level FlightAware ADS-B
Thu 05:55:33 AM 52.2080 -9.1210 269° West 435 501 30,000  Level FlightAware ADS-B
Thu 05:56:23 AM 52.2060 -9.2840 269° West 435 501 30,000  Level FlightAware ADS-B
Thu 05:57:03 AM 52.2040 -9.4240 269° West 435 501 30,000  Level FlightAware ADS-B
Thu 05:57:43 AM 52.2030 -9.5450 269° West 435 501 30,000  Level FlightAware ADS-B
Thu 05:58:23 AM 52.2010 -9.6820 269° West 436 502 30,000  Level FlightAware ADS-B
Thu 05:59:08 AM 52.1990 -9.8170 269° West 436 502 30,000  Level FlightAware ADS-B
Thu 05:59:48 AM 52.1970 -9.9570 268° West 436 502 30,000  Level FlightAware ADS-B
Thu 06:00:28 AM 52.1940 -10.0970 269° West 436 502 30,000  Level FlightAware ADS-B
Thu 06:01:08 AM 52.1920 -10.2230 269° West 437 503 30,000  Level FlightAware ADS-B
Thu 06:01:53 AM 52.1900 -10.3560 268° West 438 504 30,000  Level FlightAware ADS-B
Thu 06:02:38 AM 52.1860 -10.5290 268° West 439 505 30,000  Level FlightAware ADS-B
Thu 06:03:23 AM 52.1830 -10.6560 268° West 439 505 30,000 450 Level FlightAware ADS-B
Thu 06:03:58 AM 52.1800 -10.7820 268° West 436 502 30,600 706 Climbing FlightAware ADS-B
Thu 06:04:48 AM 52.1760 -10.9570 268° West 442 509 31,000 267 Climbing FlightAware ADS-B
Thu 06:05:28 AM 52.1730 -11.0720 267° West 444 511 31,000  Level FlightAware ADS-B
Thu 06:06:08 AM 52.1690 -11.1960 268° West 444 511 31,000  Level FlightAware ADS-B
Thu 06:06:53 AM 52.1650 -11.3460 267° West 444 511 31,000  Level FlightAware ADS-B
Thu 06:07:33 AM 52.1610 -11.4670 267° West 444 511 31,000  Level FlightAware ADS-B
Thu 06:08:13 AM 52.1570 -11.5870 267° West 444 511 31,000  Level FlightAware ADS-B
Thu 06:08:58 AM 52.1530 -11.7070 267° West 444 511 31,000  Level FlightAware ADS-B
Thu 06:09:38 AM 52.1490 -11.8280 267° West 444 511 31,000  Level FlightAware ADS-B
Thu 06:10:23 AM 52.1440 -11.9780 271° West 444 511 31,000  Level FlightAware ADS-B
Thu 06:52:00 AM 54.9193 -18.8921 193° South  Level FlightAware Approximate
Thu 06:52:00 AM 52.0000 -20.0000 283° West 426 490 31,000  Level ETMS Enhanced Traffic Management System
Thu 06:53:00 AM 54.9809 -19.0695 211° Southwest  Level FlightAware Approximate
Thu 06:54:00 AM 55.0277 -19.2604 208° Southwest  Level FlightAware Approximate
Thu 06:55:00 AM 55.0742 -19.4517 206° Southwest  Level FlightAware Approximate
Thu 06:56:00 AM 55.1205 -19.6435 204° Southwest  Level FlightAware Approximate
Thu 07:00:00 AM 52.2329 -21.6955 286° West 426 490 31,000  Level FlightAware Transoceanic
Thu 07:01:00 AM 52.3030 -21.8527 285° West  Level FlightAware Approximate
Thu 07:02:00 AM 52.3730 -22.0104 285° West  Level FlightAware Approximate
Thu 07:03:00 AM 52.4427 -22.1686 285° West  Level FlightAware Approximate
Thu 07:04:00 AM 52.5123 -22.3273 285° West  Level FlightAware Approximate
Thu 07:05:00 AM 52.5816 -22.4865 284° West  Level FlightAware Approximate
Thu 07:06:00 AM 52.6507 -22.6462 284° West  Level FlightAware Approximate
Thu 07:07:00 AM 52.7196 -22.8064 284° West  Level FlightAware Approximate
Thu 07:08:00 AM 52.7883 -22.9671 284° West  Level FlightAware Approximate
Thu 07:09:00 AM 52.8568 -23.1283 283° West  Level FlightAware Approximate
Thu 07:10:00 AM 52.9250 -23.2900 283° West  Level FlightAware Approximate
Thu 07:11:00 AM 52.9930 -23.4523 283° West  Level FlightAware Approximate
Thu 07:12:00 AM 53.0608 -23.6150 283° West  Level FlightAware Approximate
Thu 07:13:00 AM 53.1284 -23.7783 282° West  Level FlightAware Approximate
Thu 07:14:00 AM 53.1958 -23.9420 282° West  Level FlightAware Approximate
Thu 07:15:00 AM 53.2629 -24.1063 282° West  Level FlightAware Approximate
Thu 07:16:00 AM 53.3298 -24.2711 281° West  Level FlightAware Approximate
Thu 07:17:00 AM 53.3965 -24.4364 281° West  Level FlightAware Approximate
Thu 07:18:00 AM 53.4630 -24.6023 281° West  Level FlightAware Approximate
Thu 07:19:00 AM 53.5292 -24.7687 281° West  Level FlightAware Approximate
Thu 07:20:00 AM 53.5952 -24.9355 280° West  Level FlightAware Approximate
Thu 07:21:00 AM 53.6609 -25.1029 280° West  Level FlightAware Approximate
Thu 07:22:00 AM 53.7264 -25.2708 280° West  Level FlightAware Approximate
Thu 07:23:00 AM 53.7917 -25.4393 279° West  Level FlightAware Approximate
Thu 07:24:00 AM 53.8568 -25.6083 279° West  Level FlightAware Approximate
Thu 07:25:00 AM 53.9216 -25.7778 279° West  Level FlightAware Approximate
Thu 07:26:00 AM 53.9861 -25.9478 278° West  Level FlightAware Approximate
Thu 07:27:00 AM 54.0505 -26.1183 278° West  Level FlightAware Approximate
Thu 07:28:00 AM 54.1146 -26.2894 278° West  Level FlightAware Approximate
Thu 07:29:00 AM 54.1784 -26.4610 278° West  Level FlightAware Approximate
Thu 07:30:00 AM 54.2420 -26.6331 277° West  Level FlightAware Approximate
Thu 07:31:00 AM 54.2934 -26.8171 277° West  Level FlightAware Approximate
Thu 07:32:00 AM 54.3445 -27.0015 277° West  Level FlightAware Approximate
Thu 07:33:00 AM 54.3952 -27.1863 276° West  Level FlightAware Approximate
Thu 07:34:00 AM 54.4458 -27.3717 276° West  Level FlightAware Approximate
Thu 07:35:00 AM 54.4960 -27.5575 276° West  Level FlightAware Approximate
Thu 07:36:00 AM 54.5459 -27.7437 275° West  Level FlightAware Approximate
Thu 07:37:00 AM 54.5956 -27.9304 275° West  Level FlightAware Approximate
Thu 07:38:00 AM 54.6449 -28.1175 275° West  Level FlightAware Approximate
Thu 07:39:00 AM 54.6940 -28.3051 275° West  Level FlightAware Approximate
Thu 07:40:00 AM 54.7428 -28.4932 274° West  Level FlightAware Approximate
Thu 07:41:00 AM 54.7913 -28.6817 274° West  Level FlightAware Approximate
Thu 07:42:00 AM 54.8395 -28.8707 274° West  Level FlightAware Approximate
Thu 07:43:00 AM 54.8874 -29.0601 273° West  Level FlightAware Approximate
Thu 07:44:00 AM 54.9350 -29.2499 273° West  Level FlightAware Approximate
Thu 07:45:00 AM 54.9823 -29.4402 273° West  Level FlightAware Approximate
Thu 07:46:00 AM 55.0294 -29.6310 272° West  Level FlightAware Approximate
Thu 07:47:00 AM 55.0761 -29.8222 272° West  Level FlightAware Approximate
Thu 07:48:00 AM 55.1225 -30.0138 272° West  Level FlightAware Approximate
Thu 07:49:00 AM 55.1686 -30.2059 271° West  Level FlightAware Approximate
Thu 07:50:00 AM 55.2145 -30.3985 271° West  Level FlightAware Approximate
Thu 07:51:00 AM 55.2600 -30.5914 271° West  Level FlightAware Approximate
Thu 07:52:00 AM 55.3052 -30.7849 270° West  Level FlightAware Approximate
Thu 07:53:00 AM 55.3501 -30.9787 270° West  Level FlightAware Approximate
Thu 07:54:00 AM 55.3947 -31.1730 270° West  Level FlightAware Approximate
Thu 07:55:00 AM 55.4389 -31.3678 269° West  Level FlightAware Approximate
Thu 07:56:00 AM 55.4829 -31.5629 269° West  Level FlightAware Approximate
Thu 07:57:00 AM 55.5266 -31.7585 269° West  Level FlightAware Approximate
Thu 07:58:00 AM 55.5699 -31.9546 268° West  Level FlightAware Approximate
Thu 07:59:00 AM 55.6130 -32.1511 268° West  Level FlightAware Approximate
Thu 08:00:00 AM 55.6557 -32.3479 267° West  Level FlightAware Approximate
Thu 08:01:00 AM 55.6981 -32.5453 267° West  Level FlightAware Approximate
Thu 08:02:00 AM 55.7402 -32.7430 267° West  Level FlightAware Approximate
Thu 08:03:00 AM 55.7820 -32.9412 266° West  Level FlightAware Approximate
Thu 08:04:00 AM 55.8234 -33.1398 266° West  Level FlightAware Approximate
Thu 08:05:00 AM 55.8645 -33.3388 266° West  Level FlightAware Approximate
Thu 08:06:00 AM 55.9053 -33.5383 265° West  Level FlightAware Approximate
Thu 08:07:00 AM 55.9458 -33.7382 265° West  Level FlightAware Approximate
Thu 08:08:00 AM 55.9860 -33.9384 264° West  Level FlightAware Approximate
Thu 08:09:00 AM 56.0258 -34.1391 264° West  Level FlightAware Approximate
Thu 08:10:00 AM 56.0653 -34.3403 263° West  Level FlightAware Approximate
Thu 08:11:00 AM 56.1045 -34.5418 263° West  Level FlightAware Approximate
Thu 08:12:00 AM 56.1434 -34.7437 263° West  Level FlightAware Approximate
Thu 08:13:00 AM 56.1819 -34.9460 262° West  Level FlightAware Approximate
Thu 08:14:00 AM 56.2201 -35.1488 262° West  Level FlightAware Approximate
Thu 08:15:00 AM 56.2579 -35.3519 261° West  Level FlightAware Approximate
Thu 08:16:00 AM 56.2955 -35.5555 261° West  Level FlightAware Approximate
Thu 08:17:00 AM 56.3327 -35.7594 260° West  Level FlightAware Approximate
Thu 08:18:00 AM 56.3695 -35.9637 260° West  Level FlightAware Approximate
Thu 08:19:00 AM 56.4060 -36.1685 259° West  Level FlightAware Approximate
Thu 08:20:00 AM 56.4422 -36.3736 259° West  Level FlightAware Approximate
Thu 08:21:00 AM 56.4781 -36.5791 258° West  Level FlightAware Approximate
Thu 08:22:00 AM 56.5136 -36.7850 258° West  Level FlightAware Approximate
Thu 08:23:00 AM 56.5487 -36.9913 257° West  Level FlightAware Approximate
Thu 08:24:00 AM 56.5835 -37.1980 257° West  Level FlightAware Approximate
Thu 08:25:00 AM 56.6180 -37.4050 256° West  Level FlightAware Approximate
Thu 08:26:00 AM 56.6521 -37.6124 256° West  Level FlightAware Approximate
Thu 08:27:00 AM 56.6859 -37.8202 255° West  Level FlightAware Approximate
Thu 08:28:00 AM 56.7194 -38.0284 255° West  Level FlightAware Approximate
Thu 08:29:00 AM 56.7525 -38.2369 254° West  Level FlightAware Approximate
Thu 08:30:00 AM 56.7852 -38.4458 254° West  Level FlightAware Approximate
Thu 08:31:00 AM 56.8176 -38.6551 253° West  Level FlightAware Approximate
Thu 08:32:00 AM 56.8497 -38.8647 253° West  Level FlightAware Approximate
Thu 08:33:00 AM 56.8814 -39.0747 252° West  Level FlightAware Approximate
Thu 08:34:00 AM 56.8914 -39.2919 251° West  Level FlightAware Approximate
Thu 08:35:00 AM 56.9011 -39.5092 251° West  Level FlightAware Approximate
Thu 08:36:00 AM 56.9104 -39.7266 251° West  Level FlightAware Approximate
Thu 08:37:00 AM 56.9193 -39.9441 250° West  Level FlightAware Approximate
Thu 08:38:00 AM 56.9279 -40.1617 249° West  Level FlightAware Approximate
Thu 08:39:00 AM 56.9361 -40.3794 249° West  Level FlightAware Approximate
Thu 08:40:00 AM 56.9439 -40.5972 248° West  Level FlightAware Approximate
Thu 08:41:00 AM 56.9513 -40.8151 248° West  Level FlightAware Approximate
Thu 08:42:00 AM 56.9583 -41.0331 247° West  Level FlightAware Approximate
Thu 08:43:00 AM 56.9650 -41.2512 247° West  Level FlightAware Approximate
Thu 08:44:00 AM 56.9713 -41.4693 246° West  Level FlightAware Approximate
Thu 08:45:00 AM 56.9772 -41.6875 246° West  Level FlightAware Approximate
Thu 08:46:00 AM 56.9827 -41.9058 245° Southwest  Level FlightAware Approximate
Thu 08:47:00 AM 56.9878 -42.1241 244° Southwest  Level FlightAware Approximate
Thu 08:48:00 AM 56.9926 -42.3425 244° Southwest  Level FlightAware Approximate
Thu 08:49:00 AM 56.9970 -42.5610 243° Southwest  Level FlightAware Approximate
Thu 08:50:00 AM 57.0010 -42.7795 243° Southwest  Level FlightAware Approximate
Thu 08:51:00 AM 57.0046 -42.9980 242° Southwest  Level FlightAware Approximate
Thu 08:52:00 AM 57.0078 -43.2166 241° Southwest  Level FlightAware Approximate
Thu 08:53:00 AM 57.0107 -43.4352 241° Southwest  Level FlightAware Approximate
Thu 08:54:00 AM 57.0131 -43.6539 240° Southwest  Level FlightAware Approximate
Thu 08:55:00 AM 57.0152 -43.8726 239° Southwest  Level FlightAware Approximate
Thu 08:56:00 AM 57.0169 -44.0913 238° Southwest  Level FlightAware Approximate
Thu 08:57:00 AM 57.0183 -44.3100 238° Southwest  Level FlightAware Approximate
Thu 08:58:00 AM 57.0192 -44.5287 237° Southwest  Level FlightAware Approximate
Thu 08:59:00 AM 57.0198 -44.7474 236° Southwest  Level FlightAware Approximate
Thu 09:00:00 AM 57.0200 -44.9662 235° Southwest  Level FlightAware Approximate
Thu 09:01:00 AM 57.0198 -45.1849 234° Southwest  Level FlightAware Approximate
Thu 09:02:00 AM 57.0192 -45.4037 234° Southwest  Level FlightAware Approximate
Thu 09:03:00 AM 57.0183 -45.6224 233° Southwest  Level FlightAware Approximate
Thu 09:04:00 AM 57.0169 -45.8411 232° Southwest  Level FlightAware Approximate
Thu 09:05:00 AM 57.0152 -46.0598 231° Southwest  Level FlightAware Approximate
Thu 09:06:00 AM 57.0131 -46.2785 230° Southwest  Level FlightAware Approximate
Thu 09:07:00 AM 57.0106 -46.4971 229° Southwest  Level FlightAware Approximate
Thu 09:08:00 AM 57.0078 -46.7158 228° Southwest  Level FlightAware Approximate
Thu 09:09:00 AM 57.0045 -46.9343 227° Southwest  Level FlightAware Approximate
Thu 09:10:00 AM 57.0009 -47.1529 226° Southwest  Level FlightAware Approximate
Thu 09:11:00 AM 56.9969 -47.3714 225° Southwest  Level FlightAware Approximate
Thu 09:12:00 AM 56.9925 -47.5898 224° Southwest  Level FlightAware Approximate
Thu 09:13:00 AM 56.9877 -47.8082 223° Southwest  Level FlightAware Approximate
Thu 09:14:00 AM 56.9826 -48.0266 222° Southwest  Level FlightAware Approximate
Thu 09:15:00 AM 56.9519 -48.2376 221° Southwest  Level FlightAware Approximate
Thu 09:16:00 AM 56.9209 -48.4483 220° Southwest  Level FlightAware Approximate
Thu 09:17:00 AM 56.8895 -48.6587 219° Southwest  Level FlightAware Approximate
Thu 09:18:00 AM 56.8577 -48.8687 217° Southwest  Level FlightAware Approximate
Thu 09:19:00 AM 56.8256 -49.0783 216° Southwest  Level FlightAware Approximate
Thu 09:20:00 AM 56.7932 -49.2876 215° Southwest  Level FlightAware Approximate
Thu 09:21:00 AM 56.7604 -49.4965 214° Southwest  Level FlightAware Approximate
Thu 09:22:00 AM 56.7273 -49.7051 213° Southwest  Level FlightAware Approximate
Thu 09:23:00 AM 56.6938 -49.9133 211° Southwest  Level FlightAware Approximate
Thu 09:24:00 AM 56.6599 -50.1211 210° Southwest  Level FlightAware Approximate
Thu 09:25:00 AM 56.6258 -50.3285 209° Southwest  Level FlightAware Approximate
Thu 09:26:00 AM 56.5912 -50.5356 207° Southwest  Level FlightAware Approximate
Thu 09:27:00 AM 56.5564 -50.7422 206° Southwest  Level FlightAware Approximate
Thu 09:28:00 AM 56.5211 -50.9486 204° Southwest  Level FlightAware Approximate
Thu 09:29:00 AM 56.4856 -51.1545 203° Southwest  Level FlightAware Approximate
Thu 09:30:00 AM 56.4497 -51.3600 201° Southwest  Level FlightAware Approximate
Thu 09:31:00 AM 56.4135 -51.5651 199° South  Level FlightAware Approximate
Thu 09:32:00 AM 56.3769 -51.7699 197° South  Level FlightAware Approximate
Thu 09:33:00 AM 56.3400 -51.9742 196° South  Level FlightAware Approximate
Thu 09:34:00 AM 56.3028 -52.1782 194° South  Level FlightAware Approximate
Thu 09:35:00 AM 56.2652 -52.3817 192° South  Level FlightAware Approximate
Thu 09:36:00 AM 56.2273 -52.5849 189° South  Level FlightAware Approximate
Thu 09:37:00 AM 56.1890 -52.7876 187° South  Level FlightAware Approximate
Thu 09:38:00 AM 56.1505 -52.9900 185° South  Level FlightAware Approximate
Thu 09:39:00 AM 56.1116 -53.1919 183° South  Level FlightAware Approximate
Thu 09:40:00 AM 56.0723 -53.3934 180° South  Level FlightAware Approximate
Thu 09:41:00 AM 56.0328 -53.5945 178° South  Level FlightAware Approximate
Thu 09:41:45 AM 53.2167 -53.4167 253° West 420 483 32,000  Level Gander Center
Thu 09:42:45 AM 53.1833 -53.6000 252° West 420 483 32,000  Level Gander Center
Thu 09:43:45 AM 53.1500 -53.7667 239° Southwest 420 483 32,000  Level Gander Center
Thu 09:44:45 AM 53.0833 -53.9500 253° West 410 472 32,000  Level Gander Center
Thu 09:45:45 AM 53.0500 -54.1333 244° Southwest 410 472 32,000  Level Gander Center
Thu 09:46:45 AM 53.0000 -54.3000 239° Southwest 410 472 32,000  Level Gander Center
Thu 09:47:45 AM 52.9333 -54.4833 241° Southwest 420 483 32,000  Level Gander Center
Thu 09:48:45 AM 52.8833 -54.6333 244° Southwest 420 483 32,000  Level Gander Center
Thu 09:49:45 AM 52.8333 -54.8000 239° Southwest 420 483 32,000  Level Gander Center
Thu 09:50:45 AM 52.7667 -54.9833 244° Southwest 430 495 32,000  Level Gander Center
Thu 09:51:45 AM 52.7167 -55.1500 241° Southwest 430 495 32,000  Level Gander Center
Thu 09:52:24 AM 52.6833 -55.2500 239° Southwest 420 483 32,000 545 Level Moncton Center
Thu 09:53:24 AM 52.6167 -55.4333 234° Southwest 420 483 32,900 850 Climbing Moncton Center
Thu 09:54:24 AM 52.5500 -55.5833 231° Southwest 430 495 33,700 741 Climbing Moncton Center
Thu 09:54:45 AM 52.5167 -55.6500 231° Southwest 440 506 33,900 222 Climbing Gander Center
Thu 09:55:45 AM 52.4333 -55.8167 241° Southwest 440 506 34,000 61 Climbing Gander Center
Thu 09:56:23 AM 52.4000 -55.9167 222° Southwest 440 506 34,000  Level Moncton Center
Thu 09:56:45 AM 52.3667 -55.9667 231° Southwest 430 495 34,000  Level Gander Center
Thu 09:57:23 AM 52.3167 -56.0667 234° Southwest 440 506 34,000  Level Moncton Center
Thu 09:58:23 AM 52.2500 -56.2167 231° Southwest 440 506 34,000  Level Moncton Center
Thu 09:58:45 AM 52.2167 -56.2833 234° Southwest 430 495 34,000  Level Gander Center
Thu 09:59:45 AM 52.1500 -56.4333 226° Southwest 430 495 34,000  Level Gander Center
Thu 10:00:23 AM 52.1000 -56.5167 223° Southwest 430 495 34,000  Level Moncton Center
Thu 10:00:45 AM 52.0667 -56.5667 242° Southwest 430 495 34,000  Level Gander Center
Thu 10:01:19 AM 52.0333 -56.6667 237° Southwest 430 495 34,000  Level Gander Center
Thu 10:02:19 AM 51.9667 -56.8333 223° Southwest 430 495 34,000  Level Gander Center
Thu 10:02:45 AM 51.9333 -56.8833 223° Southwest 430 495 34,000  Level Gander Center
Thu 10:03:23 AM 51.8667 -56.9833 242° Southwest 440 506 34,000  Level Moncton Center
Thu 10:03:45 AM 51.8500 -57.0333 231° Southwest 440 506 34,000  Level Gander Center
Thu 10:04:45 AM 51.7667 -57.2000 234° Southwest 440 506 34,000  Level Gander Center
Thu 10:05:45 AM 51.7000 -57.3500 226° Southwest 430 495 34,000  Level Gander Center
Thu 10:06:23 AM 51.6500 -57.4333 237° Southwest 430 495 34,000  Level Moncton Center
Thu 10:06:45 AM 51.6167 -57.5167 225° Southwest 430 495 34,000  Level Gander Center
Thu 10:07:45 AM 51.5333 -57.6500 231° Southwest 430 495 34,000  Level Gander Center
Thu 10:08:45 AM 51.4500 -57.8167 239° Southwest 430 495 34,000  Level Gander Center
Thu 10:09:45 AM 51.4000 -57.9500 228° Southwest 430 495 34,000  Level Gander Center
Thu 10:10:45 AM 51.3167 -58.1000 231° Southwest 430 495 34,000  Level Gander Center
Thu 10:11:45 AM 51.2333 -58.2667 225° Southwest 430 495 34,000  Level Gander Center
Thu 10:12:45 AM 51.1500 -58.4000 232° Southwest 440 506 34,000  Level Gander Center
Thu 10:13:45 AM 51.0833 -58.5333 238° Southwest 420 483 34,000  Level Gander Center
Thu 10:14:45 AM 51.0167 -58.7000 225° Southwest 430 495 34,000  Level Gander Center
Thu 10:15:45 AM 50.9333 -58.8333 228° Southwest 430 495 34,000  Level Gander Center
Thu 10:16:23 AM 50.8667 -58.9500 235° Southwest 430 495 34,000  Level Moncton Center
Thu 10:17:23 AM 50.8000 -59.1000 212° Southwest 430 495 34,000  Level Moncton Center
Thu 10:17:45 AM 50.7667 -59.1333 232° Southwest 440 506 34,000  Level Gander Center
Thu 10:18:45 AM 50.6833 -59.3000 232° Southwest 430 495 34,000  Level Gander Center
Thu 10:19:45 AM 50.6167 -59.4333 226° Southwest 440 506 34,000  Level Gander Center
Thu 10:20:45 AM 50.5333 -59.5667 238° Southwest 440 506 34,000  Level Gander Center
Thu 10:21:45 AM 50.4667 -59.7333 226° Southwest 440 506 34,000  Level Gander Center
Thu 10:22:45 AM 50.3833 -59.8667 232° Southwest 440 506 34,000  Level Gander Center
Thu 10:23:23 AM 50.3333 -59.9667 232° Southwest 440 506 34,000  Level Moncton Center
Thu 10:23:45 AM 50.3000 -60.0333 226° Southwest 440 506 34,000  Level Gander Center
Thu 10:24:45 AM 50.2167 -60.1667 229° Southwest 440 506 34,000  Level Gander Center
Thu 10:25:45 AM 50.1333 -60.3167 227° Southwest 440 506 34,000  Level Gander Center
Thu 10:26:23 AM 50.0833 -60.4000 229° Southwest 440 506 34,000  Level Moncton Center
Thu 10:27:23 AM 50.0000 -60.5500 226° Southwest 440 506 34,000  Level Moncton Center
Thu 10:28:24 AM 49.9167 -60.6833 243° Southwest 430 495 34,000  Level Moncton Center
Thu 10:28:45 AM 49.9000 -60.7333 219° Southwest 430 495 34,000  Level Gander Center
Thu 10:29:24 AM 49.8333 -60.8167 243° Southwest 440 506 34,000  Level Moncton Center
Thu 10:29:45 AM 49.8167 -60.8667 236° Southwest 440 506 34,000  Level Gander Center
Thu 10:30:24 AM 49.7667 -60.9833 226° Southwest 430 495 34,000  Level Moncton Center
Thu 10:31:24 AM 49.6833 -61.1167 226° Southwest 430 495 34,000  Level Moncton Center
Thu 10:32:24 AM 49.6000 -61.2500 213° Southwest 430 495 34,000  Level Moncton Center
Thu 10:32:45 AM 49.5667 -61.2833 236° Southwest 440 506 34,000  Level Gander Center
Thu 10:33:45 AM 49.5000 -61.4333 226° Southwest 430 495 34,000  Level Gander Center
Thu 10:34:45 AM 49.4167 -61.5667 219° Southwest 430 495 34,000  Level Gander Center
Thu 10:35:24 AM 49.3500 -61.6500 243° Southwest 430 495 34,000  Level Moncton Center
Thu 10:35:45 AM 49.3333 -61.7000 230° Southwest 430 495 34,000  Level Gander Center
Thu 10:36:45 AM 49.2500 -61.8500 227° Southwest 430 495 34,000  Level Gander Center
Thu 10:37:24 AM 49.2000 -61.9333 226° Southwest 420 483 34,000  Level Moncton Center
Thu 10:38:24 AM 49.1167 -62.0667 225° Southwest 430 495 34,000  Level Moncton Center
Thu 10:38:45 AM 49.0833 -62.1167 239° Southwest 430 495 34,000  Level Gander Center
Thu 10:39:24 AM 49.0500 -62.2000 221° Southwest 430 495 34,000  Level Moncton Center
Thu 10:40:24 AM 48.9500 -62.3333 243° Southwest 440 506 34,000  Level Moncton Center
Thu 10:40:45 AM 48.9333 -62.3833 219° Southwest 430 495 34,000  Level Gander Center
Thu 10:41:24 AM 48.8667 -62.4667 227° Southwest 430 495 34,000  Level Moncton Center
Thu 10:42:24 AM 48.7833 -62.6000 229° Southwest 430 495 34,000  Level Moncton Center
Thu 10:43:24 AM 48.7167 -62.7167 233° Southwest 440 506 34,000  Level Moncton Center
Thu 10:44:24 AM 48.6333 -62.8833 213° Southwest 430 495 34,000  Level Moncton Center
Thu 10:44:45 AM 48.6000 -62.9167 228° Southwest 430 495 34,000  Level Gander Center
Thu 10:45:24 AM 48.5500 -63.0000 227° Southwest 440 506 34,000  Level Moncton Center
Thu 10:46:24 AM 48.4667 -63.1333 227° Southwest 440 506 34,000  Level Moncton Center
Thu 10:47:24 AM 48.3833 -63.2667 230° Southwest 430 495 34,000  Level Moncton Center
Thu 10:48:24 AM 48.3000 -63.4167 227° Southwest 440 506 34,000  Level Moncton Center
Thu 10:49:24 AM 48.2167 -63.5500 223° Southwest 440 506 34,000  Level Moncton Center
Thu 10:50:24 AM 48.1333 -63.6667 227° Southwest 440 506 34,000  Level Moncton Center
Thu 10:51:24 AM 48.0500 -63.8000 225° Southwest 440 506 34,000  Level Moncton Center
Thu 10:52:24 AM 47.9500 -63.9500 223° Southwest 440 506 34,000  Level Moncton Center
Thu 10:53:24 AM 47.8667 -64.0667 227° Southwest 440 506 34,000  Level Moncton Center
Thu 10:54:24 AM 47.7833 -64.2000 223° Southwest 440 506 34,000  Level Moncton Center
Thu 10:55:24 AM 47.7000 -64.3167 231° Southwest 440 506 34,000  Level Moncton Center
Thu 10:56:24 AM 47.6167 -64.4667 227° Southwest 440 506 34,000  Level Moncton Center
Thu 10:57:24 AM 47.5333 -64.6000 223° Southwest 450 518 34,000  Level Moncton Center
Thu 10:58:24 AM 47.4500 -64.7167 225° Southwest 450 518 34,000  Level Moncton Center
Thu 10:59:24 AM 47.3500 -64.8667 224° Southwest 450 518 34,000  Level Moncton Center
Thu 11:00:24 AM 47.2667 -64.9833 226° Southwest 450 518 34,000  Level Moncton Center
Thu 11:01:24 AM 47.1667 -65.1333 224° Southwest 460 529 34,000  Level Moncton Center
Thu 11:02:24 AM 47.0833 -65.2500 231° Southwest 460 529 34,000  Level Moncton Center
Thu 11:03:24 AM 47.0000 -65.4000 214° Southwest 460 529 34,000  Level Moncton Center
Thu 11:04:24 AM 46.8833 -65.5167 231° Southwest 460 529 34,000  Level Moncton Center
Thu 11:05:24 AM 46.8000 -65.6667 231° Southwest 460 529 34,000  Level Moncton Center
Thu 11:06:24 AM 46.7167 -65.8167 219° Southwest 470 541 34,000  Level Moncton Center
Thu 11:07:24 AM 46.6167 -65.9333 231° Southwest 470 541 34,000  Level Moncton Center
Thu 11:08:24 AM 46.5333 -66.0833 224° Southwest 470 541 34,000  Level Moncton Center
Thu 11:09:24 AM 46.4500 -66.2000 223° Southwest 470 541 34,000  Level Moncton Center
Thu 11:10:24 AM 46.3500 -66.3333 224° Southwest 470 541 34,000  Level Moncton Center
Thu 11:11:24 AM 46.2667 -66.4500 222° Southwest 470 541 34,000  Level Moncton Center
Thu 11:12:24 AM 46.1500 -66.6000 223° Southwest 480 552 34,000  Level Moncton Center
Thu 11:13:24 AM 46.0500 -66.7333 231° Southwest 480 552 34,000  Level Moncton Center
Thu 11:14:24 AM 45.9667 -66.8833 219° Southwest 480 552 34,000  Level Moncton Center
Thu 11:15:24 AM 45.8667 -67.0000 228° Southwest 480 552 34,000  Level Moncton Center
Thu 11:16:24 AM 45.7833 -67.1333 219° Southwest 480 552 34,000  Level Moncton Center
Thu 11:17:24 AM 45.6667 -67.2667 232° Southwest 480 552 34,000  Level Moncton Center
Thu 11:18:24 AM 45.5833 -67.4167 215° Southwest 490 564 34,000  Level Moncton Center
Thu 11:19:24 AM 45.4833 -67.5167 230° Southwest 490 564 34,000  Level Moncton Center
Thu 11:20:24 AM 45.3833 -67.6833 224° Southwest 490 564 34,000  Level Moncton Center
Thu 11:20:52 AM 45.3550 -67.7225 227° Southwest 493 567 34,000 -68 Level Boston Center
Thu 11:21:52 AM 45.2625 -67.8628 228° Southwest 498 573 33,900 -50 Descending Boston Center
Thu 11:22:52 AM 45.1722 -68.0053 229° Southwest 486 559 33,900 50 Level Boston Center
Thu 11:23:52 AM 45.0739 -68.1628 228° Southwest 486 559 34,000 50 Climbing Boston Center
Thu 11:24:52 AM 44.9814 -68.3078 227° Southwest 486 559 34,000  Level Boston Center
Thu 11:25:52 AM 44.8903 -68.4461 228° Southwest 486 559 34,000  Level Boston Center
Thu 11:26:52 AM 44.7972 -68.5900 227° Southwest 486 559 34,000  Level Boston Center
Thu 11:27:52 AM 44.7039 -68.7306 227° Southwest 491 565 34,000  Level Boston Center
Thu 11:28:52 AM 44.6083 -68.8736 228° Southwest 491 565 34,000  Level Boston Center
Thu 11:29:52 AM 44.5167 -69.0161 229° Southwest 486 559 34,000  Level Boston Center
Thu 11:31:18 AM 44.4180 -69.1740 227° Southwest 498 573 34,000  Level FlightAware ADS-B
Thu 11:31:58 AM 44.4040 -69.1950 227° Southwest 499 574 34,000  Level FlightAware ADS-B
Thu 11:32:38 AM 44.2800 -69.3810 227° Southwest 499 574 34,000  Level FlightAware ADS-B
Thu 11:33:23 AM 44.2490 -69.4280 227° Southwest 501 577 34,000  Level FlightAware ADS-B
Thu 11:34:03 AM 44.1980 -69.5050 227° Southwest 501 577 34,000  Level FlightAware ADS-B
Thu 11:34:48 AM 44.1270 -69.6110 227° Southwest 501 577 34,000  Level FlightAware ADS-B
Thu 11:35:28 AM 44.0700 -69.6960 227° Southwest 501 577 34,000  Level FlightAware ADS-B
Thu 11:36:08 AM 44.0130 -69.7810 227° Southwest 501 577 34,000  Level FlightAware ADS-B
Thu 11:36:53 AM 43.9560 -69.8660 227° Southwest 501 577 34,000  Level FlightAware ADS-B
Thu 11:37:33 AM 43.8990 -69.9500 227° Southwest 501 577 34,000  Level FlightAware ADS-B
Thu 11:38:13 AM 43.8420 -70.0350 224° Southwest 501 577 34,000  Level FlightAware ADS-B
Thu 11:38:52 AM 43.6594 -70.2761 228° Southwest 499 574 34,000 -61 Level Boston Center
Thu 11:39:52 AM 43.5703 -70.4111 226° Southwest 492 566 33,900  Descending Boston Center
Thu 11:40:52 AM 43.4725 -70.5489 229° Southwest 492 566 34,000  Climbing Boston Center
Thu 11:41:52 AM 43.3811 -70.6947 232° Southwest 492 566 33,900 -50 Descending Boston Center
Thu 11:42:52 AM 43.2958 -70.8456 232° Southwest 504 580 33,900 50 Level Boston Center
Thu 11:43:52 AM 43.2103 -70.9931 231° Southwest 504 580 34,000 50 Climbing Boston Center
Thu 11:44:52 AM 43.1244 -71.1400 230° Southwest 504 580 34,000  Level Boston Center
Thu 11:45:52 AM 43.0508 -71.2611 230° Southwest 509 586 34,000  Level Boston Center
Thu 11:46:52 AM 42.9503 -71.4275 231° Southwest 517 595 34,000  Level Boston Center
Thu 11:47:52 AM 42.8661 -71.5706 231° Southwest 520 598 34,000  Level Boston Center
Thu 11:48:52 AM 42.7775 -71.7189 226° Southwest 508 585 34,000  Level Boston Center
Thu 11:49:52 AM 42.6803 -71.8556 227° Southwest 508 585 34,000  Level Boston Center
Thu 11:50:52 AM 42.5850 -71.9944 226° Southwest 508 585 34,000  Level Boston Center
Thu 11:51:52 AM 42.4897 -72.1303 227° Southwest 508 585 34,000  Level Boston Center
Thu 11:52:52 AM 42.3858 -72.2828 226° Southwest 503 579 34,000  Level Boston Center
Thu 11:53:52 AM 42.3003 -72.4008 227° Southwest 493 567 34,000  Level Boston Center
Thu 11:54:52 AM 42.2067 -72.5383 227° Southwest 499 574 34,000  Level Boston Center
Thu 11:55:52 AM 42.1106 -72.6753 230° Southwest 499 574 34,000  Level Boston Center
Thu 11:57:13 AM 41.9840 -72.8810 228° Southwest 502 578 34,000  Level FlightAware ADS-B
Thu 11:57:53 AM 41.9250 -72.9690 228° Southwest 502 578 34,000  Level FlightAware ADS-B
Thu 11:58:37 AM 41.8480 -73.0840 228° Southwest 509 586 34,000  Level FlightAware ADS-B
Thu 11:59:08 AM 41.7989 -73.1561 228° Southwest 508 585 34,000  Level FlightAware ADS-B
Thu 11:59:50 AM 41.7321 -73.2544 228° Southwest 510 587 34,000  Level FlightAware ADS-B
Thu 12:00:21 PM 41.6839 -73.3249 227° Southwest 510 587 34,000  Level FlightAware ADS-B
Thu 12:00:57 PM 41.6269 -73.4080 228° Southwest 508 585 34,000  Level FlightAware ADS-B
Thu 12:01:35 PM 41.5670 -73.4955 227° Southwest 506 582 34,000  Level FlightAware ADS-B
Thu 12:02:07 PM 41.5153 -73.5699 227° Southwest 504 580 34,000  Level FlightAware ADS-B
Thu 12:02:41 PM 41.4618 -73.6473 227° Southwest 502 578 34,000  Level FlightAware ADS-B
Thu 12:03:12 PM 41.4138 -73.7161 227° Southwest 498 573 34,000  Level FlightAware ADS-B
Thu 12:03:45 PM 41.3627 -73.7899 227° Southwest 494 568 34,000  Level FlightAware ADS-B
Thu 12:04:15 PM 41.3162 -73.8568 227° Southwest 492 566 34,000  Level FlightAware ADS-B
Thu 12:04:50 PM 41.2628 -73.9335 227° Southwest 490 564 34,000  Level FlightAware ADS-B
Thu 12:05:20 PM 41.2156 -74.0009 227° Southwest 489 563 34,000  Level FlightAware ADS-B
Thu 12:05:55 PM 41.1624 -74.0773 229° Southwest 486 559 34,000  Level FlightAware ADS-B
Thu 12:06:27 PM 41.1161 -74.1486 230° Southwest 484 557 34,000  Level FlightAware ADS-B
Thu 12:06:58 PM 41.0725 -74.2186 231° Southwest 483 556 34,000  Level FlightAware ADS-B
Thu 12:07:28 PM 41.0299 -74.2871 230° Southwest 483 556 34,000  Level FlightAware ADS-B
Thu 12:07:58 PM 40.9867 -74.3564 230° Southwest 483 556 34,000  Level FlightAware ADS-B
Thu 12:08:30 PM 40.9415 -74.4287 230° Southwest 482 555 34,000  Level FlightAware ADS-B
Thu 12:09:04 PM 40.8929 -74.5060 230° Southwest 482 555 34,000  Level FlightAware ADS-B
Thu 12:09:35 PM 40.8493 -74.5753 230° Southwest 483 556 34,000  Level FlightAware ADS-B
Thu 12:10:07 PM 40.8028 -74.6488 230° Southwest 484 557 34,000  Level FlightAware ADS-B
Thu 12:10:38 PM 40.7583 -74.7193 230° Southwest 484 557 34,000  Level FlightAware ADS-B
Thu 12:11:09 PM 40.7140 -74.7890 230° Southwest 484 557 34,000  Level FlightAware ADS-B
Thu 12:11:40 PM 40.6692 -74.8597 230° Southwest 485 558 34,000  Level FlightAware ADS-B
Thu 12:12:11 PM 40.6249 -74.9292 230° Southwest 486 559 34,000  Level FlightAware ADS-B
Thu 12:12:42 PM 40.5808 -74.9984 230° Southwest 488 562 34,000  Level FlightAware ADS-B
Thu 12:13:13 PM 40.5356 -75.0690 230° Southwest 488 562 34,000  Level FlightAware ADS-B
Thu 12:13:44 PM 40.4912 -75.1392 230° Southwest 488 562 34,000  Level FlightAware ADS-B
Thu 12:14:14 PM 40.4479 -75.2073 230° Southwest 488 562 34,000  Level FlightAware ADS-B
Thu 12:14:44 PM 40.4039 -75.2765 230° Southwest 489 563 34,000  Level FlightAware ADS-B
Thu 12:15:14 PM 40.3599 -75.3454 230° Southwest 489 563 34,000  Level FlightAware ADS-B
Thu 12:15:45 PM 40.3158 -75.4142 230° Southwest 490 564 34,000  Level FlightAware ADS-B
Thu 12:16:15 PM 40.2710 -75.4839 231° Southwest 491 565 34,000  Level FlightAware ADS-B
Thu 12:16:41 PM 40.2348 -75.5423 235° Southwest 489 563 34,000  Level FlightAware ADS-B
Thu 12:17:13 PM 40.1933 -75.6190 236° Southwest 488 562 34,000  Level FlightAware ADS-B
Thu 12:17:43 PM 40.1558 -75.6926 237° Southwest 488 562 34,000  Level FlightAware ADS-B
Thu 12:18:13 PM 40.1182 -75.7671 237° Southwest 487 560 34,000  Level FlightAware ADS-B
Thu 12:18:44 PM 40.0798 -75.8431 236° Southwest 486 559 34,000  Level FlightAware ADS-B
Thu 12:19:14 PM 40.0427 -75.9158 236° Southwest 485 558 34,000  Level FlightAware ADS-B
Thu 12:19:44 PM 40.0054 -75.9890 236° Southwest 484 557 34,000  Level FlightAware ADS-B
Thu 12:20:12 PM 39.9709 -76.0560 232° Southwest 485 558 34,000  Level FlightAware ADS-B
Thu 12:20:46 PM 39.9235 -76.1338 230° Southwest 487 560 34,000  Level FlightAware ADS-B
Thu 12:21:17 PM 39.8780 -76.2040 229° Southwest 487 560 34,000  Level FlightAware ADS-B
Thu 12:21:47 PM 39.8337 -76.2713 229° Southwest 487 560 34,000  Level FlightAware ADS-B
Thu 12:22:19 PM 39.7879 -76.3408 229° Southwest 487 560 34,000  Level FlightAware ADS-B
Thu 12:23:01 PM 39.7264 -76.4337 230° Southwest 487 560 34,000  Level FlightAware ADS-B
Thu 12:23:31 PM 39.6818 -76.5016 229° Southwest 485 558 34,000  Level FlightAware ADS-B
Thu 12:24:04 PM 39.6346 -76.5729 229° Southwest 483 556 34,000  Level FlightAware ADS-B
Thu 12:24:34 PM 39.5910 -76.6387 229° Southwest 482 555 34,000  Level FlightAware ADS-B
Thu 12:25:04 PM 39.5472 -76.7046 229° Southwest 481 554 34,000  Level FlightAware ADS-B
Thu 12:25:36 PM 39.5012 -76.7739 229° Southwest 479 551 34,000  Level FlightAware ADS-B
Thu 12:26:06 PM 39.4578 -76.8390 229° Southwest 479 551 34,000  Level FlightAware ADS-B
Thu 12:26:38 PM 39.4118 -76.9080 229° Southwest 477 549 34,000  Level FlightAware ADS-B
Thu 12:27:09 PM 39.3665 -76.9760 229° Southwest 476 548 34,000  Level FlightAware ADS-B
Thu 12:27:40 PM 39.3223 -77.0419 229° Southwest 476 548 34,000  Level FlightAware ADS-B
Thu 12:28:15 PM 39.2726 -77.1157 229° Southwest 476 548 34,000  Level FlightAware ADS-B
Thu 12:28:47 PM 39.2259 -77.1852 229° Southwest 477 549 34,000  Level FlightAware ADS-B
Thu 12:29:19 PM 39.1793 -77.2545 229° Southwest 477 549 34,000  Level FlightAware ADS-B
Thu 12:29:50 PM 39.1352 -77.3199 229° Southwest 477 549 34,000  Level FlightAware ADS-B
Thu 12:30:24 PM 39.0856 -77.3932 229° Southwest 478 550 34,000  Level FlightAware ADS-B
Thu 12:31:07 PM 39.0228 -77.4859 229° Southwest 478 550 34,000  Level FlightAware ADS-B
Thu 12:32:08 PM 38.9450 -77.6000 229° Southwest 479 551 34,000  Level FlightAware ADS-B
Thu 12:32:48 PM 38.8780 -77.6980 229° Southwest 481 554 34,000  Level FlightAware ADS-B
Thu 12:33:38 PM 38.8160 -77.7890 229° Southwest 480 552 34,000  Level FlightAware ADS-B
Thu 12:34:18 PM 38.7520 -77.8830 228° Southwest 481 554 34,000  Level FlightAware ADS-B
Thu 12:34:58 PM 38.6960 -77.9640 229° Southwest 481 554 34,000  Level FlightAware ADS-B
Thu 12:35:38 PM 38.6310 -78.0590 228° Southwest 483 556 34,000  Level FlightAware ADS-B
Thu 12:36:23 PM 38.5720 -78.1440 229° Southwest 483 556 34,000  Level FlightAware ADS-B
Thu 12:37:08 PM 38.5050 -78.2420 229° Southwest 484 557 34,000  Level FlightAware ADS-B
Thu 12:37:48 PM 38.4490 -78.3230 228° Southwest 485 558 34,000  Level FlightAware ADS-B
Thu 12:38:28 PM 38.3940 -78.4010 228° Southwest 486 559 34,000  Level FlightAware ADS-B
Thu 12:39:13 PM 38.3260 -78.4970 228° Southwest 486 559 34,000  Level FlightAware ADS-B
Thu 12:39:53 PM 38.2720 -78.5740 228° Southwest 486 559 34,000  Level FlightAware ADS-B
Thu 12:40:38 PM 38.2180 -78.6510 227° Southwest 486 559 34,000  Level FlightAware ADS-B
Thu 12:41:18 PM 38.1630 -78.7270 228° Southwest 486 559 34,000  Level FlightAware ADS-B
Thu 12:41:58 PM 38.1090 -78.8040 231° Southwest 486 559 34,000  Level FlightAware ADS-B
Thu 12:42:33 PM 38.0156 -78.9522 228° Southwest 489 563 34,000  Level Washington Center
Thu 12:43:33 PM 37.9222 -79.0850 227° Southwest 495 570 34,000  Level Washington Center
Thu 12:44:34 PM 37.8308 -79.2097 228° Southwest 500 575 34,000  Level Washington Center
Thu 12:45:34 PM 37.7306 -79.3519 228° Southwest 506 582 34,000  Level Washington Center
Thu 12:46:34 PM 37.6433 -79.4733 226° Southwest 519 597 34,000  Level Washington Center
Thu 12:47:32 PM 37.5364 -79.6119 227° Southwest 505 581 34,000  Level Washington Center
Thu 12:48:33 PM 37.4556 -79.7203 229° Southwest 500 575 34,000  Level Washington Center
Thu 12:49:33 PM 37.3547 -79.8639 227° Southwest 500 575 34,000 -248 Level Washington Center
Thu 12:50:34 PM 37.2669 -79.9842 227° Southwest 495 570 33,500 -893 Descending Washington Center
Thu 12:51:34 PM 37.1747 -80.1067 227° Southwest 490 564 32,200 -897 Descending Washington Center
Thu 12:54:28 PM 36.8969 -80.4750 228° Southwest 496 571 30,000 -564 Descending Atlanta Center
Thu 12:55:28 PM 36.8067 -80.6011 226° Southwest 496 571 30,000  Level Atlanta Center
Thu 12:56:28 PM 36.7222 -80.7108 227° Southwest 490 564 30,000  Level Atlanta Center
Thu 12:57:28 PM 36.6275 -80.8389 226° Southwest 490 564 30,000  Level Atlanta Center
Thu 12:58:28 PM 36.5247 -80.9722 228° Southwest 495 570 30,000  Level Atlanta Center
Thu 01:00:16 PM 36.3708 -81.1870 227° Southwest 482 555 30,000  Level FlightAware ADS-B
Thu 01:00:46 PM 36.3239 -81.2485 227° Southwest 480 552 30,000  Level FlightAware ADS-B
Thu 01:01:18 PM 36.2760 -81.3112 227° Southwest 478 550 30,000  Level FlightAware ADS-B
Thu 01:01:48 PM 36.2305 -81.3710 226° Southwest 477 549 30,000  Level FlightAware ADS-B
Thu 01:03:03 PM 36.1177 -81.5180 227° Southwest 476 548 30,000  Level FlightAware ADS-B
Thu 01:03:34 PM 36.0706 -81.5796 226° Southwest 470 541 30,000  Level FlightAware ADS-B
Thu 01:04:07 PM 36.0217 -81.6429 226° Southwest 468 539 30,000  Level FlightAware ADS-B
Thu 01:04:37 PM 35.9769 -81.7011 226° Southwest 468 539 30,000  Level FlightAware ADS-B
Thu 01:05:07 PM 35.9319 -81.7589 226° Southwest 466 536 30,000  Level FlightAware ADS-B
Thu 01:05:37 PM 35.8874 -81.8164 226° Southwest 466 536 30,000  Level FlightAware ADS-B
Thu 01:06:08 PM 35.8415 -81.8754 226° Southwest 467 537 30,000  Level FlightAware ADS-B
Thu 01:06:40 PM 35.7939 -81.9366 226° Southwest 467 537 30,000  Level FlightAware ADS-B
Thu 01:07:19 PM 35.7355 -82.0116 226° Southwest 468 539 30,000  Level FlightAware ADS-B
Thu 01:07:51 PM 35.6874 -82.0728 226° Southwest 467 537 30,000  Level FlightAware ADS-B
Thu 01:08:22 PM 35.6406 -82.1324 226° Southwest 468 539 30,000  Level FlightAware ADS-B
Thu 01:08:52 PM 35.5954 -82.1898 226° Southwest 467 537 30,000  Level FlightAware ADS-B
Thu 01:09:10 PM 35.5681 -82.2245 223° Southwest 467 537 30,000  Level FlightAware ADS-B
Thu 01:09:16 PM 35.5590 -82.2349 216° Southwest 467 537 30,000  Level FlightAware ADS-B
Thu 01:09:47 PM 35.5052 -82.2827 215° Southwest 464 534 30,000 -97 Level FlightAware ADS-B
Thu 01:10:18 PM 35.4506 -82.3296 215° Southwest 463 533 29,900 -590 Descending FlightAware ADS-B
Thu 01:10:48 PM 35.3981 -82.3750 217° Southwest 460 529 29,400 -871 Descending FlightAware ADS-B
Thu 01:11:20 PM 35.3446 -82.4236 218° Southwest 455 524 29,000 -750 Descending FlightAware ADS-B
Thu 01:11:52 PM 35.2917 -82.4734 218° Southwest 450 518 28,600 -833 Descending FlightAware ADS-B
Thu 01:12:32 PM 35.2254 -82.5364 218° Southwest 447 514 28,000 -324 Descending FlightAware ADS-B
Thu 01:13:43 PM 35.1101 -82.6463 219° Southwest 445 512 28,000  Level FlightAware ADS-B
Thu 01:14:12 PM 35.0651 -82.6915 224° Southwest 443 510 28,000  Level FlightAware ADS-B
Thu 01:14:44 PM 35.0185 -82.7466 225° Southwest 442 509 28,000  Level FlightAware ADS-B
Thu 01:15:14 PM 34.9747 -82.8002 225° Southwest 450 518 28,000  Level FlightAware ADS-B
Thu 01:15:47 PM 34.9257 -82.8594 225° Southwest 460 529 28,000  Level FlightAware ADS-B
Thu 01:16:20 PM 34.8748 -82.9207 224° Southwest 469 540 28,000 -381 Level FlightAware ADS-B
Thu 01:16:50 PM 34.8284 -82.9760 224° Southwest 464 534 27,600 -1,292 Descending FlightAware ADS-B
Thu 01:17:25 PM 34.7750 -83.0397 224° Southwest 451 519 26,600 -1,859 Descending FlightAware ADS-B
Thu 01:18:01 PM 34.7228 -83.1014 224° Southwest 445 512 25,400 -1,909 Descending FlightAware ADS-B
Thu 01:18:31 PM 34.6796 -83.1529 224° Southwest 430 495 24,500 -1,770 Descending FlightAware ADS-B
Thu 01:19:02 PM 34.6365 -83.2039 225° Southwest 427 491 23,600 -1,688 Descending FlightAware ADS-B
Thu 01:19:35 PM 34.5904 -83.2590 224° Southwest 415 478 22,700 -1,619 Descending FlightAware ADS-B
Thu 01:20:05 PM 34.5490 -83.3081 224° Southwest 418 481 21,900 -1,347 Descending FlightAware ADS-B
Thu 01:21:13 PM 34.4670 -83.4040 224° Southwest 411 473 20,500 -1,389 Descending FlightAware ADS-B
Thu 01:21:53 PM 34.4090 -83.4730 224° Southwest 413 475 19,400 -1,650 Descending FlightAware ADS-B
Thu 01:22:33 PM 34.3470 -83.5460 223° Southwest 409 471 18,300 -1,482 Descending FlightAware ADS-B
Thu 01:23:18 PM 34.2930 -83.6080 224° Southwest 403 464 17,300 -1,412 Descending FlightAware ADS-B
Thu 01:23:58 PM 34.2390 -83.6720 224° Southwest 405 466 16,300 -1,553 Descending FlightAware ADS-B
Thu 01:24:43 PM 34.1790 -83.7420 225° Southwest 391 450 15,100 -1,694 Descending FlightAware ADS-B
Thu 01:25:23 PM 34.1220 -83.8100 225° Southwest 387 445 13,900 -918 Descending FlightAware ADS-B
Thu 01:26:08 PM 34.0650 -83.8790 225° Southwest 387 445 13,800 -71 Descending FlightAware ADS-B
Thu 01:26:48 PM 34.0140 -83.9400 222° Southwest 387 445 13,800  Level FlightAware ADS-B
Thu 01:27:28 PM 33.9610 -83.9980 215° Southwest 397 457 13,800  Level FlightAware ADS-B
Thu 01:28:08 PM 33.9010 -84.0480 216° Southwest 370 426 13,800  Level FlightAware ADS-B
Thu 01:28:53 PM 33.8430 -84.0990 210° Southwest 323 372 13,800  Level FlightAware ADS-B
Thu 01:29:33 PM 33.7980 -84.1300 209° Southwest 281 323 13,800 -353 Level FlightAware ADS-B
Thu 01:30:18 PM 33.7470 -84.1640 210° Southwest 257 296 13,300 -918 Descending FlightAware ADS-B
Thu 01:30:58 PM 33.7070 -84.1920 209° Southwest 244 281 12,500 -1,125 Descending FlightAware ADS-B
Thu 01:31:38 PM 33.6670 -84.2190 208° Southwest 238 274 11,800 -494 Descending FlightAware ADS-B
Thu 01:32:23 PM 33.6220 -84.2480 209° Southwest 240 276 11,800  Level FlightAware ADS-B
Thu 01:33:03 PM 33.5820 -84.2750 225° Southwest 245 282 11,800 -86 Level FlightAware ADS-B
Thu 01:33:33 PM 33.5590 -84.3030 268° West 242 278 11,700 -943 Descending FlightAware ADS-B
Thu 01:34:13 PM 33.5570 -84.3580 270° West 248 285 10,700 -1,412 Descending FlightAware ADS-B
Thu 01:34:58 PM 33.5570 -84.4140 261° West 246 283 9,700 -1,352 Descending FlightAware ADS-B
Thu 01:35:24 PM 33.5500 -84.4667 270° West 259 298 9,100 -1,862 Descending Atlanta TRACON
Thu 01:36:25 PM 33.5500 -84.5500 270° West 230 265 7,000 -2,231 Descending Atlanta TRACON
Thu 01:37:25 PM 33.5500 -84.6333 270° West 231 266 4,600 -1,550 Descending Atlanta TRACON
Thu 01:38:25 PM 33.5500 -84.7000 270° West 232 267 3,900 -550 Descending Atlanta TRACON
Thu 01:39:25 PM 33.5500 -84.7833 360° North 230 265 3,500 -198 Descending Atlanta TRACON
Thu 01:40:26 PM 33.6167 -84.7833 90° East 215 247 3,500  Level Atlanta TRACON
Thu 01:41:26 PM 33.6167 -84.7167 90° East 180 207 3,500  Level Atlanta TRACON
Thu 01:42:20 PM 33.6167 -84.6667 90° East 178 205 3,500  Level Atlanta TRACON
Thu 01:43:20 PM 33.6167 -84.6000 90° East 177 204 3,500 -476 Level Atlanta TRACON
Thu 01:44:26 PM 33.6167 -84.5333 90° East 173 199 2,500 -898 Descending Atlanta TRACON
Thu 01:45:27 PM 33.6167 -84.4833 73° East 155 178 1,600 -885 Descending Atlanta TRACON
Thu 01:53:00 PM 33.6333 -84.4167 73° East  Level FlightAware Approximate

Login

Don't have an account? Register now (free) for customized features, flight alerts, and more!